createdAt,value
2019-02-09T00:03:36.409Z,18.77
2019-02-09T00:07:44.307Z,19.20
2019-02-09T00:11:52.208Z,18.13
2019-02-09T00:15:59.905Z,19.40
2019-02-09T00:20:08.240Z,22.50
2019-02-09T00:24:16.154Z,22.83
2019-02-09T00:28:24.126Z,31.90
2019-02-09T00:32:31.613Z,27.23
2019-02-09T00:36:39.504Z,24.83
2019-02-09T00:40:47.232Z,17.10
2019-02-09T00:44:54.718Z,15.93
2019-02-09T00:49:02.483Z,19.67
2019-02-09T00:53:10.377Z,16.93
2019-02-09T00:57:18.285Z,16.87
2019-02-09T01:01:26.180Z,15.73
2019-02-09T01:05:37.286Z,18.67
2019-02-09T01:09:44.797Z,18.13
2019-02-09T01:13:52.410Z,20.60
2019-02-09T01:18:00.017Z,21.23
2019-02-09T01:22:07.667Z,21.87
2019-02-09T01:26:15.644Z,16.67
2019-02-09T01:30:24.901Z,17.73
2019-02-09T01:34:32.406Z,17.37
2019-02-09T01:38:40.024Z,16.60
2019-02-09T01:42:47.821Z,18.20
2019-02-09T01:46:55.424Z,16.70
2019-02-09T01:51:03.067Z,17.33
2019-02-09T01:55:10.918Z,21.60
2019-02-09T01:59:18.795Z,19.97
2019-02-09T02:03:26.706Z,16.50
2019-02-09T02:07:34.316Z,17.90
2019-02-09T02:11:41.918Z,16.17
2019-02-09T02:15:49.937Z,19.23
2019-02-09T02:19:57.845Z,18.30
2019-02-09T02:24:05.463Z,22.60
2019-02-09T02:28:13.366Z,19.17
2019-02-09T02:32:21.977Z,17.27
2019-02-09T02:36:29.985Z,16.17
2019-02-09T02:40:37.798Z,15.83
2019-02-09T02:44:45.406Z,15.57
2019-02-09T02:48:53.389Z,16.73
2019-02-09T02:53:01.140Z,15.37
2019-02-09T02:57:09.024Z,16.67
2019-02-09T03:01:17.535Z,15.77
2019-02-09T03:05:25.757Z,14.67
2019-02-09T03:09:33.459Z,16.07
2019-02-09T03:13:41.372Z,15.30
2019-02-09T03:17:49.064Z,15.40
2019-02-09T03:21:56.751Z,16.10
2019-02-09T03:26:04.765Z,15.27
2019-02-09T03:30:13.998Z,16.20
2019-02-09T03:34:21.906Z,18.23
2019-02-09T03:38:30.025Z,14.77
2019-02-09T03:42:37.949Z,13.87
2019-02-09T03:46:46.380Z,15.50
2019-02-09T03:50:53.904Z,18.47
2019-02-09T03:55:01.822Z,20.27
2019-02-09T03:59:09.729Z,18.83
2019-02-09T04:03:17.930Z,22.60
2019-02-09T04:07:25.845Z,22.97
2019-02-09T04:11:33.746Z,21.07
2019-02-09T04:15:41.441Z,22.47
2019-02-09T04:19:49.352Z,17.37
2019-02-09T04:23:57.241Z,18.60
2019-02-09T04:28:05.257Z,19.33
2019-02-09T04:32:13.634Z,21.67
2019-02-09T04:36:21.606Z,19.67
2019-02-09T04:40:31.115Z,20.57
2019-02-09T04:44:39.568Z,21.77
2019-02-09T04:48:47.453Z,19.20
2019-02-09T04:52:55.663Z,20.00
2019-02-09T04:57:03.555Z,18.70
2019-02-09T05:01:13.968Z,18.00
2019-02-09T05:05:21.173Z,17.60
2019-02-09T05:09:29.075Z,20.07
2019-02-09T05:13:36.996Z,21.93
2019-02-09T05:17:46.751Z,24.33
2019-02-09T05:21:54.970Z,22.13
2019-02-09T05:26:02.665Z,19.63
2019-02-09T05:30:13.962Z,28.33
2019-02-09T05:34:21.878Z,19.87
2019-02-09T05:38:29.779Z,16.20
2019-02-09T05:42:38.274Z,23.00
2019-02-09T05:46:46.181Z,24.30
2019-02-09T05:50:54.009Z,21.77
2019-02-09T05:55:01.504Z,20.47
2019-02-09T05:59:09.204Z,20.37
2019-02-09T06:03:17.093Z,18.80
2019-02-09T06:07:24.999Z,36.63
2019-02-09T06:11:32.892Z,32.03
2019-02-09T06:15:40.595Z,25.90
2019-02-09T06:19:48.503Z,23.17
2019-02-09T06:23:56.956Z,25.70
2019-02-09T06:28:04.928Z,38.47
2019-02-09T06:32:12.893Z,38.27
2019-02-09T06:36:20.818Z,39.37
2019-02-09T06:40:29.387Z,37.33
2019-02-09T06:44:36.884Z,29.83
2019-02-09T06:48:44.843Z,42.27
2019-02-09T06:52:52.754Z,38.43
2019-02-09T06:57:00.653Z,36.93
2019-02-09T07:01:08.582Z,45.97
2019-02-09T07:05:18.111Z,52.30
2019-02-09T07:09:27.546Z,47.77
2019-02-09T07:13:35.457Z,53.63
2019-02-09T07:17:43.360Z,47.43
2019-02-09T07:21:51.262Z,34.70
2019-02-09T07:25:59.162Z,38.00
2019-02-09T07:30:09.271Z,32.87
2019-02-09T07:34:17.187Z,28.07
2019-02-09T07:38:25.111Z,24.03
2019-02-09T07:42:32.613Z,21.97
2019-02-09T07:46:40.338Z,17.23
2019-02-09T07:50:48.174Z,15.80
2019-02-09T07:54:55.981Z,18.97
2019-02-09T07:59:03.498Z,22.00
2019-02-09T08:03:11.229Z,18.03
2019-02-09T08:07:19.142Z,27.23
2019-02-09T08:11:27.048Z,24.10
2019-02-09T08:15:35.059Z,26.10
2019-02-09T08:19:42.760Z,21.90
2019-02-09T08:23:50.847Z,21.03
2019-02-09T08:27:59.504Z,22.23
2019-02-09T08:32:12.633Z,20.23
2019-02-09T08:36:17.322Z,21.70
2019-02-09T08:40:25.223Z,30.47
2019-02-09T08:44:33.181Z,18.93
2019-02-09T08:48:41.197Z,20.20
2019-02-09T08:52:49.140Z,23.17
2019-02-09T08:56:57.043Z,29.57
2019-02-09T09:01:06.331Z,23.20
2019-02-09T09:05:14.347Z,26.70
2019-02-09T09:09:22.108Z,21.17
2019-02-09T09:13:30.006Z,18.43
2019-02-09T09:17:37.934Z,21.00
2019-02-09T09:21:45.835Z,23.80
2019-02-09T09:25:53.884Z,17.93
2019-02-09T09:30:01.392Z,15.13
2019-02-09T09:34:09.312Z,16.53
2019-02-09T09:38:17.768Z,19.17
2019-02-09T09:42:25.382Z,18.00
2019-02-09T09:46:32.986Z,23.97
2019-02-09T09:50:40.985Z,21.60
2019-02-09T09:54:48.886Z,20.07
2019-02-09T09:58:56.790Z,20.43
2019-02-09T10:03:05.381Z,24.67
2019-02-09T10:07:13.316Z,19.80
2019-02-09T10:11:20.918Z,19.87
2019-02-09T10:15:28.898Z,20.63
2019-02-09T10:19:36.606Z,19.70
2019-02-09T10:23:45.434Z,20.17
2019-02-09T10:27:55.070Z,20.77
2019-02-09T10:32:03.004Z,21.10
2019-02-09T10:36:10.898Z,19.63
2019-02-09T10:40:24.027Z,21.80
2019-02-09T10:44:33.041Z,17.70
2019-02-09T10:48:40.955Z,24.83
2019-02-09T10:52:48.660Z,20.97
2019-02-09T10:56:56.627Z,19.53
2019-02-09T11:01:11.933Z,21.47
2019-02-09T11:05:20.158Z,21.43
2019-02-09T11:09:28.227Z,19.60
2019-02-09T11:13:36.237Z,18.57
2019-02-09T11:17:44.149Z,17.23
2019-02-09T11:21:52.070Z,23.30
2019-02-09T11:25:59.673Z,20.20
2019-02-09T11:30:10.110Z,26.97
2019-02-09T11:34:18.029Z,23.67
2019-02-09T11:38:26.942Z,31.80
2019-02-09T11:42:34.846Z,34.80
2019-02-09T11:46:42.767Z,33.30
2019-02-09T11:50:50.364Z,29.70
2019-02-09T11:54:58.068Z,27.47
2019-02-09T11:59:06.113Z,28.97
2019-02-09T12:03:16.078Z,23.87
2019-02-09T12:07:24.038Z,24.00
2019-02-09T12:11:31.929Z,24.73
2019-02-09T12:15:40.010Z,29.97
2019-02-09T12:19:47.520Z,26.10
2019-02-09T12:23:55.412Z,22.67
2019-02-09T12:28:03.523Z,27.60
2019-02-09T12:32:11.432Z,25.53
2019-02-09T12:36:19.130Z,23.87
2019-02-09T12:40:30.706Z,26.37
2019-02-09T12:44:38.317Z,28.23
2019-02-09T12:48:46.236Z,29.40
2019-02-09T12:52:54.156Z,16.57
2019-02-09T12:57:02.070Z,15.70
2019-02-09T13:01:09.997Z,16.50
2019-02-09T13:05:18.126Z,16.00
2019-02-09T13:09:26.511Z,16.57
2019-02-09T13:13:34.427Z,16.73
2019-02-09T13:17:42.335Z,16.70
2019-02-09T13:21:50.246Z,16.10
2019-02-09T13:25:58.475Z,15.93
2019-02-09T13:30:09.103Z,15.73
2019-02-09T13:34:17.022Z,17.33
2019-02-09T13:38:24.632Z,15.60
2019-02-09T13:42:32.536Z,15.83
2019-02-09T13:46:40.149Z,15.50
2019-02-09T13:50:48.100Z,15.87
2019-02-09T13:54:55.702Z,16.67
2019-02-09T13:59:03.225Z,16.03
2019-02-09T14:03:11.360Z,18.67
2019-02-09T14:07:19.331Z,16.43
2019-02-09T14:11:27.263Z,17.27
2019-02-09T14:15:35.241Z,19.93
2019-02-09T14:19:43.754Z,16.13
2019-02-09T14:23:52.482Z,18.83
2019-02-09T14:28:02.136Z,16.63
2019-02-09T14:32:10.054Z,17.93
2019-02-09T14:36:17.674Z,19.47
2019-02-09T14:40:29.664Z,18.60
2019-02-09T14:44:37.585Z,16.73
2019-02-09T14:48:45.182Z,41.77
2019-02-09T14:52:52.811Z,31.47
2019-02-09T14:57:00.748Z,42.03
2019-02-09T15:01:08.790Z,50.47
2019-02-09T15:05:16.704Z,48.30
2019-02-09T15:09:24.688Z,34.07
2019-02-09T15:13:32.403Z,41.53
2019-02-09T15:17:40.345Z,43.13
2019-02-09T15:21:48.279Z,51.23
2019-02-09T15:25:56.314Z,48.53
2019-02-09T15:30:05.351Z,51.73
2019-02-09T15:34:13.321Z,70.13
2019-02-09T15:38:21.272Z,68.80
2019-02-09T15:42:29.184Z,47.10
2019-02-09T15:46:37.091Z,41.00
2019-02-09T15:50:44.718Z,40.80
2019-02-09T15:54:52.249Z,43.90
2019-02-09T15:59:00.999Z,48.27
2019-02-09T16:03:08.943Z,43.83
2019-02-09T16:07:16.948Z,41.13
2019-02-09T16:11:24.886Z,41.23
2019-02-09T16:15:32.864Z,36.17
2019-02-09T16:19:40.383Z,39.53
2019-02-09T16:23:48.356Z,38.23
2019-02-09T16:27:56.390Z,31.00
2019-02-09T16:32:04.993Z,53.30
2019-02-09T16:36:12.945Z,58.20
2019-02-09T16:40:24.019Z,66.40
2019-02-09T16:44:31.539Z,49.53
2019-02-09T16:48:39.762Z,41.63
2019-02-09T16:52:47.681Z,58.30
2019-02-09T16:56:55.598Z,46.30
2019-02-09T17:01:05.327Z,40.33
2019-02-09T17:05:13.497Z,41.50
2019-02-09T17:09:21.862Z,38.53
2019-02-09T17:13:29.607Z,44.87
2019-02-09T17:17:37.343Z,46.37
2019-02-09T17:21:44.961Z,41.63
2019-02-09T17:25:52.584Z,43.90
2019-02-09T17:30:00.382Z,63.77
2019-02-09T17:34:08.403Z,73.67
2019-02-09T17:38:16.985Z,161.97
2019-02-09T17:42:24.624Z,78.33
2019-02-09T17:46:32.146Z,53.63
2019-02-09T17:50:39.816Z,56.97
2019-02-09T17:54:47.523Z,52.43
2019-02-09T17:58:55.959Z,46.83
2019-02-09T18:03:04.811Z,58.47
2019-02-09T18:07:12.734Z,45.87
2019-02-09T18:11:20.446Z,55.27
2019-02-09T18:15:28.371Z,59.57
2019-02-09T18:19:35.998Z,58.80
2019-02-09T18:23:43.915Z,47.07
2019-02-09T18:27:52.068Z,46.07
2019-02-09T18:31:59.998Z,47.53
2019-02-09T18:36:08.051Z,44.03
2019-02-09T18:40:18.163Z,55.07
2019-02-09T18:44:25.991Z,40.70
2019-02-09T18:48:33.946Z,46.27
2019-02-09T18:52:41.975Z,41.77
2019-02-09T18:56:49.981Z,57.17
2019-02-09T19:00:57.577Z,53.77
2019-02-09T19:05:06.945Z,48.97
2019-02-09T19:09:15.730Z,48.90
2019-02-09T19:13:23.728Z,42.40
2019-02-09T19:17:31.337Z,42.17
2019-02-09T19:21:39.396Z,43.23
2019-02-09T19:25:47.100Z,40.67
2019-02-09T19:29:54.795Z,36.33
2019-02-09T19:34:02.865Z,31.57
2019-02-09T19:38:10.786Z,32.60
2019-02-09T19:42:18.753Z,38.23
2019-02-09T19:46:26.665Z,40.27
2019-02-09T19:50:34.590Z,44.40
2019-02-09T19:54:43.102Z,46.20
2019-02-09T19:58:51.116Z,42.77
2019-02-09T20:02:59.179Z,41.17
2019-02-09T20:07:07.176Z,44.37
2019-02-09T20:11:14.939Z,37.40
2019-02-09T20:15:22.666Z,37.73
2019-02-09T20:19:30.561Z,37.43
2019-02-09T20:23:38.173Z,35.77
2019-02-09T20:27:45.726Z,39.53
2019-02-09T20:31:53.637Z,31.43
2019-02-09T20:36:01.269Z,33.97
2019-02-09T20:40:14.195Z,31.97
2019-02-09T20:44:22.082Z,24.47
2019-02-09T20:48:30.065Z,26.40
2019-02-09T20:52:37.985Z,25.33
2019-02-09T20:56:45.537Z,26.97
2019-02-09T21:00:53.485Z,27.33
2019-02-09T21:05:01.433Z,24.93
2019-02-09T21:09:09.820Z,24.70
2019-02-09T21:13:17.762Z,23.40
2019-02-09T21:17:25.665Z,27.67
2019-02-09T21:21:33.362Z,24.47
2019-02-09T21:25:42.760Z,22.40
2019-02-09T21:29:50.731Z,25.93
2019-02-09T21:33:58.642Z,22.40
2019-02-09T21:38:07.641Z,22.40
2019-02-09T21:42:15.528Z,23.37
2019-02-09T21:46:23.124Z,21.77
2019-02-09T21:50:32.958Z,21.30
2019-02-09T21:54:40.493Z,22.33
2019-02-09T21:58:49.066Z,22.23
2019-02-09T22:02:57.063Z,21.80
2019-02-09T22:07:04.946Z,23.47
2019-02-09T22:11:12.911Z,24.43
2019-02-09T22:15:23.431Z,21.23
2019-02-09T22:19:30.961Z,22.13
2019-02-09T22:23:38.937Z,20.73
2019-02-09T22:27:47.423Z,23.93
2019-02-09T22:31:55.030Z,24.00
2019-02-09T22:36:02.596Z,20.80
2019-02-09T22:40:16.752Z,21.63
2019-02-09T22:44:24.671Z,23.83
2019-02-09T22:48:32.628Z,21.67
2019-02-09T22:52:40.512Z,22.40
2019-02-09T22:56:48.423Z,21.37
2019-02-09T23:01:42.984Z,23.93
2019-02-09T23:06:38.851Z,21.77
2019-02-09T23:10:46.737Z,24.27
2019-02-09T23:14:54.637Z,23.03
2019-02-09T23:19:03.030Z,26.23
2019-02-09T23:23:11.739Z,32.10
2019-02-09T23:27:19.644Z,24.17
2019-02-09T23:31:27.545Z,24.03
2019-02-09T23:35:35.432Z,25.47
2019-02-09T23:39:42.971Z,22.23
2019-02-09T23:43:50.896Z,23.37
2019-02-09T23:47:58.766Z,26.00
2019-02-09T23:52:06.659Z,26.47
2019-02-09T23:56:14.547Z,26.23
